sensor_id;sensor_type;location;lat;lon;timestamp;P1;durP1;ratioP1;P2;durP2;ratioP2
6251;SDS011;3159;52.414;9.784;2023-11-18T00:00:48;6.93;;;5.40;;
6251;SDS011;3159;52.414;9.784;2023-11-18T00:03:16;6.23;;;4.63;;
6251;SDS011;3159;52.414;9.784;2023-11-18T00:05:44;5.60;;;4.77;;
6251;SDS011;3159;52.414;9.784;2023-11-18T00:08:11;6.10;;;4.80;;
6251;SDS011;3159;52.414;9.784;2023-11-18T00:10:38;8.20;;;4.90;;
6251;SDS011;3159;52.414;9.784;2023-11-18T00:13:05;5.67;;;4.97;;
6251;SDS011;3159;52.414;9.784;2023-11-18T00:15:35;5.90;;;4.63;;
6251;SDS011;3159;52.414;9.784;2023-11-18T00:18:02;5.97;;;5.07;;
6251;SDS011;3159;52.414;9.784;2023-11-18T00:20:29;6.57;;;5.10;;
6251;SDS011;3159;52.414;9.784;2023-11-18T00:22:57;7.97;;;5.30;;
6251;SDS011;3159;52.414;9.784;2023-11-18T00:25:25;6.10;;;5.30;;
6251;SDS011;3159;52.414;9.784;2023-11-18T00:27:52;5.70;;;5.07;;
6251;SDS011;3159;52.414;9.784;2023-11-18T00:30:19;6.47;;;4.97;;
6251;SDS011;3159;52.414;9.784;2023-11-18T00:32:48;6.67;;;5.00;;
6251;SDS011;3159;52.414;9.784;2023-11-18T00:35:15;8.63;;;5.17;;
6251;SDS011;3159;52.414;9.784;2023-11-18T00:37:42;10.03;;;5.07;;
6251;SDS011;3159;52.414;9.784;2023-11-18T00:40:09;6.37;;;4.80;;
6251;SDS011;3159;52.414;9.784;2023-11-18T00:42:36;7.37;;;5.13;;
6251;SDS011;3159;52.414;9.784;2023-11-18T00:45:04;7.33;;;5.50;;
6251;SDS011;3159;52.414;9.784;2023-11-18T00:47:32;5.80;;;5.20;;
6251;SDS011;3159;52.414;9.784;2023-11-18T00:50:00;5.53;;;4.90;;
6251;SDS011;3159;52.414;9.784;2023-11-18T00:52:28;5.17;;;4.50;;
6251;SDS011;3159;52.414;9.784;2023-11-18T00:54:55;8.60;;;5.70;;
6251;SDS011;3159;52.414;9.784;2023-11-18T00:57:22;7.23;;;4.80;;
6251;SDS011;3159;52.414;9.784;2023-11-18T00:59:49;6.70;;;5.20;;
6251;SDS011;3159;52.414;9.784;2023-11-18T01:02:16;7.97;;;5.00;;
6251;SDS011;3159;52.414;9.784;2023-11-18T01:04:43;6.57;;;5.00;;
6251;SDS011;3159;52.414;9.784;2023-11-18T01:07:12;6.10;;;5.50;;
6251;SDS011;3159;52.414;9.784;2023-11-18T01:09:39;7.93;;;5.10;;
6251;SDS011;3159;52.414;9.784;2023-11-18T01:12:06;5.47;;;4.87;;
6251;SDS011;3159;52.414;9.784;2023-11-18T01:14:35;5.67;;;4.97;;
6251;SDS011;3159;52.414;9.784;2023-11-18T01:17:02;6.47;;;5.23;;
6251;SDS011;3159;52.414;9.784;2023-11-18T01:19:30;6.13;;;5.30;;
6251;SDS011;3159;52.414;9.784;2023-11-18T01:21:57;7.00;;;5.67;;
6251;SDS011;3159;52.414;9.784;2023-11-18T01:24:25;7.57;;;5.53;;
6251;SDS011;3159;52.414;9.784;2023-11-18T01:26:53;6.00;;;5.40;;
6251;SDS011;3159;52.414;9.784;2023-11-18T01:29:20;6.13;;;5.50;;
6251;SDS011;3159;52.414;9.784;2023-11-18T01:31:47;6.47;;;5.23;;
6251;SDS011;3159;52.414;9.784;2023-11-18T01:34:14;8.07;;;5.97;;
6251;SDS011;3159;52.414;9.784;2023-11-18T01:36:42;7.60;;;6.07;;
6251;SDS011;3159;52.414;9.784;2023-11-18T01:39:09;11.03;;;7.50;;
6251;SDS011;3159;52.414;9.784;2023-11-18T01:41:39;8.93;;;7.23;;
6251;SDS011;3159;52.414;9.784;2023-11-18T01:44:06;12.63;;;8.03;;
6251;SDS011;3159;52.414;9.784;2023-11-18T01:46:33;10.70;;;7.17;;
6251;SDS011;3159;52.414;9.784;2023-11-18T01:49:01;10.57;;;6.67;;
6251;SDS011;3159;52.414;9.784;2023-11-18T01:51:29;10.40;;;7.80;;
6251;SDS011;3159;52.414;9.784;2023-11-18T01:53:56;10.57;;;6.67;;
6251;SDS011;3159;52.414;9.784;2023-11-18T01:56:26;8.80;;;6.60;;
6251;SDS011;3159;52.414;9.784;2023-11-18T01:58:55;12.27;;;7.73;;
6251;SDS011;3159;52.414;9.784;2023-11-18T02:01:23;12.57;;;8.03;;
6251;SDS011;3159;52.414;9.784;2023-11-18T02:03:53;10.87;;;7.03;;
6251;SDS011;3159;52.414;9.784;2023-11-18T02:06:21;10.50;;;6.77;;
6251;SDS011;3159;52.414;9.784;2023-11-18T02:08:48;9.03;;;5.93;;
6251;SDS011;3159;52.414;9.784;2023-11-18T02:11:20;7.87;;;6.73;;
6251;SDS011;3159;52.414;9.784;2023-11-18T02:13:55;11.27;;;8.80;;
6251;SDS011;3159;52.414;9.784;2023-11-18T02:16:27;15.00;;;11.23;;
6251;SDS011;3159;52.414;9.784;2023-11-18T02:18:55;16.77;;;12.10;;
6251;SDS011;3159;52.414;9.784;2023-11-18T02:21:22;19.73;;;14.17;;
6251;SDS011;3159;52.414;9.784;2023-11-18T02:23:51;19.03;;;14.40;;
6251;SDS011;3159;52.414;9.784;2023-11-18T02:26:23;18.30;;;13.33;;
6251;SDS011;3159;52.414;9.784;2023-11-18T02:28:50;17.73;;;13.63;;
6251;SDS011;3159;52.414;9.784;2023-11-18T02:31:20;21.03;;;14.50;;
6251;SDS011;3159;52.414;9.784;2023-11-18T02:33:51;21.60;;;15.03;;
6251;SDS011;3159;52.414;9.784;2023-11-18T02:36:35;18.00;;;14.17;;
6251;SDS011;3159;52.414;9.784;2023-11-18T02:39:12;17.63;;;13.70;;
6251;SDS011;3159;52.414;9.784;2023-11-18T02:41:52;18.87;;;13.27;;
6251;SDS011;3159;52.414;9.784;2023-11-18T02:44:21;17.90;;;12.27;;
6251;SDS011;3159;52.414;9.784;2023-11-18T02:46:50;17.70;;;11.80;;
6251;SDS011;3159;52.414;9.784;2023-11-18T02:49:17;17.80;;;12.57;;
6251;SDS011;3159;52.414;9.784;2023-11-18T02:51:44;15.30;;;12.43;;
6251;SDS011;3159;52.414;9.784;2023-11-18T02:54:12;15.77;;;12.40;;
6251;SDS011;3159;52.414;9.784;2023-11-18T02:56:41;18.73;;;12.73;;
6251;SDS011;3159;52.414;9.784;2023-11-18T02:59:11;16.60;;;12.57;;
6251;SDS011;3159;52.414;9.784;2023-11-18T03:01:38;18.80;;;13.63;;
6251;SDS011;3159;52.414;9.784;2023-11-18T03:04:06;19.07;;;13.07;;
6251;SDS011;3159;52.414;9.784;2023-11-18T03:06:33;19.90;;;13.87;;
6251;SDS011;3159;52.414;9.784;2023-11-18T03:09:01;16.53;;;13.80;;
6251;SDS011;3159;52.414;9.784;2023-11-18T03:11:32;21.30;;;15.17;;
6251;SDS011;3159;52.414;9.784;2023-11-18T03:13:59;22.53;;;15.03;;
6251;SDS011;3159;52.414;9.784;2023-11-18T03:16:28;18.77;;;13.63;;
6251;SDS011;3159;52.414;9.784;2023-11-18T03:18:55;21.20;;;15.53;;
6251;SDS011;3159;52.414;9.784;2023-11-18T03:21:24;23.37;;;15.23;;
6251;SDS011;3159;52.414;9.784;2023-11-18T03:23:51;21.63;;;16.10;;
6251;SDS011;3159;52.414;9.784;2023-11-18T03:26:19;24.10;;;15.67;;
6251;SDS011;3159;52.414;9.784;2023-11-18T03:28:46;22.03;;;16.70;;
6251;SDS011;3159;52.414;9.784;2023-11-18T03:31:13;25.37;;;17.10;;
6251;SDS011;3159;52.414;9.784;2023-11-18T03:33:42;21.93;;;15.93;;
6251;SDS011;3159;52.414;9.784;2023-11-18T03:36:09;23.30;;;15.83;;
6251;SDS011;3159;52.414;9.784;2023-11-18T03:38:38;25.67;;;17.17;;
6251;SDS011;3159;52.414;9.784;2023-11-18T03:41:05;22.30;;;16.13;;
6251;SDS011;3159;52.414;9.784;2023-11-18T03:43:33;26.03;;;16.83;;
6251;SDS011;3159;52.414;9.784;2023-11-18T03:46:00;23.47;;;16.63;;
6251;SDS011;3159;52.414;9.784;2023-11-18T03:48:27;22.40;;;17.37;;
6251;SDS011;3159;52.414;9.784;2023-11-18T03:50:57;23.10;;;16.40;;
6251;SDS011;3159;52.414;9.784;2023-11-18T03:53:24;22.37;;;16.50;;
6251;SDS011;3159;52.414;9.784;2023-11-18T03:55:51;22.70;;;16.33;;
6251;SDS011;3159;52.414;9.784;2023-11-18T03:58:18;23.73;;;16.87;;
6251;SDS011;3159;52.414;9.784;2023-11-18T04:00:44;22.87;;;15.53;;
6251;SDS011;3159;52.414;9.784;2023-11-18T04:03:12;23.30;;;16.80;;
6251;SDS011;3159;52.414;9.784;2023-11-18T04:05:39;23.77;;;15.77;;
6251;SDS011;3159;52.414;9.784;2023-11-18T04:08:08;24.07;;;17.60;;
6251;SDS011;3159;52.414;9.784;2023-11-18T04:10:36;21.97;;;15.87;;
6251;SDS011;3159;52.414;9.784;2023-11-18T04:13:03;23.67;;;16.63;;
6251;SDS011;3159;52.414;9.784;2023-11-18T04:15:30;22.67;;;15.97;;
6251;SDS011;3159;52.414;9.784;2023-11-18T04:17:57;22.30;;;16.30;;
6251;SDS011;3159;52.414;9.784;2023-11-18T04:20:26;21.10;;;15.50;;
6251;SDS011;3159;52.414;9.784;2023-11-18T04:22:53;22.83;;;16.23;;
6251;SDS011;3159;52.414;9.784;2023-11-18T04:25:21;22.73;;;15.97;;
6251;SDS011;3159;52.414;9.784;2023-11-18T04:27:50;21.70;;;15.93;;
6251;SDS011;3159;52.414;9.784;2023-11-18T04:30:17;22.93;;;16.70;;
6251;SDS011;3159;52.414;9.784;2023-11-18T04:32:44;25.43;;;17.20;;
6251;SDS011;3159;52.414;9.784;2023-11-18T04:35:11;23.10;;;16.40;;
6251;SDS011;3159;52.414;9.784;2023-11-18T04:37:38;24.10;;;15.63;;
6251;SDS011;3159;52.414;9.784;2023-11-18T04:40:08;25.10;;;17.03;;
6251;SDS011;3159;52.414;9.784;2023-11-18T04:42:38;21.87;;;16.30;;
6251;SDS011;3159;52.414;9.784;2023-11-18T04:45:05;23.50;;;16.37;;
6251;SDS011;3159;52.414;9.784;2023-11-18T04:47:34;21.97;;;16.57;;
6251;SDS011;3159;52.414;9.784;2023-11-18T04:50:03;21.30;;;15.73;;
6251;SDS011;3159;52.414;9.784;2023-11-18T04:52:30;20.87;;;15.20;;
6251;SDS011;3159;52.414;9.784;2023-11-18T04:55:00;21.67;;;16.10;;
6251;SDS011;3159;52.414;9.784;2023-11-18T04:57:27;23.23;;;16.53;;
6251;SDS011;3159;52.414;9.784;2023-11-18T04:59:55;21.90;;;16.30;;
6251;SDS011;3159;52.414;9.784;2023-11-18T05:02:22;20.20;;;15.67;;
6251;SDS011;3159;52.414;9.784;2023-11-18T05:04:49;23.60;;;16.60;;
6251;SDS011;3159;52.414;9.784;2023-11-18T05:07:16;21.70;;;16.60;;
6251;SDS011;3159;52.414;9.784;2023-11-18T05:09:43;25.43;;;18.57;;
6251;SDS011;3159;52.414;9.784;2023-11-18T05:12:10;21.67;;;16.83;;
6251;SDS011;3159;52.414;9.784;2023-11-18T05:14:37;22.10;;;17.33;;
6251;SDS011;3159;52.414;9.784;2023-11-18T05:17:06;24.73;;;17.40;;
6251;SDS011;3159;52.414;9.784;2023-11-18T05:19:33;25.83;;;16.93;;
6251;SDS011;3159;52.414;9.784;2023-11-18T05:22:01;24.63;;;17.67;;
6251;SDS011;3159;52.414;9.784;2023-11-18T05:24:28;26.60;;;17.73;;
6251;SDS011;3159;52.414;9.784;2023-11-18T05:26:53;23.87;;;17.43;;
6251;SDS011;3159;52.414;9.784;2023-11-18T05:29:21;26.33;;;17.33;;
6251;SDS011;3159;52.414;9.784;2023-11-18T05:31:49;22.93;;;17.27;;
6251;SDS011;3159;52.414;9.784;2023-11-18T05:34:19;23.00;;;16.90;;
6251;SDS011;3159;52.414;9.784;2023-11-18T05:36:46;20.90;;;15.77;;
6251;SDS011;3159;52.414;9.784;2023-11-18T05:39:19;21.50;;;15.90;;
6251;SDS011;3159;52.414;9.784;2023-11-18T05:41:46;23.60;;;17.40;;
6251;SDS011;3159;52.414;9.784;2023-11-18T05:44:15;24.23;;;16.67;;
6251;SDS011;3159;52.414;9.784;2023-11-18T05:46:44;26.87;;;18.47;;
6251;SDS011;3159;52.414;9.784;2023-11-18T05:49:12;25.73;;;18.63;;
6251;SDS011;3159;52.414;9.784;2023-11-18T05:51:41;28.90;;;18.60;;
6251;SDS011;3159;52.414;9.784;2023-11-18T05:54:08;24.20;;;17.70;;
6251;SDS011;3159;52.414;9.784;2023-11-18T05:56:35;26.27;;;18.43;;
6251;SDS011;3159;52.414;9.784;2023-11-18T05:59:02;25.23;;;19.10;;
6251;SDS011;3159;52.414;9.784;2023-11-18T06:01:30;27.87;;;19.10;;
6251;SDS011;3159;52.414;9.784;2023-11-18T06:03:58;27.63;;;19.07;;
6251;SDS011;3159;52.414;9.784;2023-11-18T06:06:25;27.30;;;19.57;;
6251;SDS011;3159;52.414;9.784;2023-11-18T06:08:54;25.47;;;17.87;;
6251;SDS011;3159;52.414;9.784;2023-11-18T06:11:24;26.80;;;19.50;;
6251;SDS011;3159;52.414;9.784;2023-11-18T06:13:51;24.07;;;17.57;;
6251;SDS011;3159;52.414;9.784;2023-11-18T06:16:19;28.77;;;19.07;;
6251;SDS011;3159;52.414;9.784;2023-11-18T06:18:47;24.23;;;18.30;;
6251;SDS011;3159;52.414;9.784;2023-11-18T06:21:16;22.43;;;16.80;;
6251;SDS011;3159;52.414;9.784;2023-11-18T06:23:45;23.43;;;16.67;;
6251;SDS011;3159;52.414;9.784;2023-11-18T06:26:17;24.47;;;17.53;;
6251;SDS011;3159;52.414;9.784;2023-11-18T06:28:45;25.23;;;17.70;;
6251;SDS011;3159;52.414;9.784;2023-11-18T06:31:12;23.87;;;17.60;;
6251;SDS011;3159;52.414;9.784;2023-11-18T06:33:39;27.37;;;18.27;;
6251;SDS011;3159;52.414;9.784;2023-11-18T06:36:08;24.47;;;17.73;;
6251;SDS011;3159;52.414;9.784;2023-11-18T06:38:36;23.83;;;16.47;;
6251;SDS011;3159;52.414;9.784;2023-11-18T06:41:03;20.57;;;16.13;;
6251;SDS011;3159;52.414;9.784;2023-11-18T06:43:36;24.37;;;17.23;;
6251;SDS011;3159;52.414;9.784;2023-11-18T06:46:16;24.07;;;17.07;;
6251;SDS011;3159;52.414;9.784;2023-11-18T06:48:46;24.23;;;17.47;;
6251;SDS011;3159;52.414;9.784;2023-11-18T06:51:14;26.13;;;16.93;;
6251;SDS011;3159;52.414;9.784;2023-11-18T06:53:41;25.03;;;16.73;;
6251;SDS011;3159;52.414;9.784;2023-11-18T06:56:09;22.80;;;17.80;;
6251;SDS011;3159;52.414;9.784;2023-11-18T06:58:38;23.50;;;17.47;;
6251;SDS011;3159;52.414;9.784;2023-11-18T07:01:07;23.87;;;16.80;;
6251;SDS011;3159;52.414;9.784;2023-11-18T07:03:35;23.87;;;16.93;;
6251;SDS011;3159;52.414;9.784;2023-11-18T07:06:02;27.40;;;17.37;;
6251;SDS011;3159;52.414;9.784;2023-11-18T07:08:30;24.37;;;16.97;;
6251;SDS011;3159;52.414;9.784;2023-11-18T07:11:00;27.27;;;18.43;;
6251;SDS011;3159;52.414;9.784;2023-11-18T07:13:27;26.87;;;17.40;;
6251;SDS011;3159;52.414;9.784;2023-11-18T07:15:56;24.90;;;17.57;;
6251;SDS011;3159;52.414;9.784;2023-11-18T07:18:23;25.47;;;18.67;;
6251;SDS011;3159;52.414;9.784;2023-11-18T07:20:50;30.17;;;19.70;;
6251;SDS011;3159;52.414;9.784;2023-11-18T07:23:18;27.03;;;18.60;;
6251;SDS011;3159;52.414;9.784;2023-11-18T07:25:46;30.70;;;19.67;;
6251;SDS011;3159;52.414;9.784;2023-11-18T07:28:14;28.27;;;19.00;;
6251;SDS011;3159;52.414;9.784;2023-11-18T07:30:42;25.87;;;18.33;;
6251;SDS011;3159;52.414;9.784;2023-11-18T07:33:14;26.70;;;18.20;;
6251;SDS011;3159;52.414;9.784;2023-11-18T07:35:42;27.23;;;18.63;;
6251;SDS011;3159;52.414;9.784;2023-11-18T07:38:09;28.37;;;18.97;;
6251;SDS011;3159;52.414;9.784;2023-11-18T07:40:36;31.27;;;20.00;;
6251;SDS011;3159;52.414;9.784;2023-11-18T07:43:07;33.57;;;20.13;;
6251;SDS011;3159;52.414;9.784;2023-11-18T07:45:35;30.70;;;19.83;;
6251;SDS011;3159;52.414;9.784;2023-11-18T07:48:04;29.97;;;19.17;;
6251;SDS011;3159;52.414;9.784;2023-11-18T07:50:34;30.17;;;19.70;;
6251;SDS011;3159;52.414;9.784;2023-11-18T07:53:01;27.07;;;18.90;;
6251;SDS011;3159;52.414;9.784;2023-11-18T07:55:31;32.77;;;20.33;;
6251;SDS011;3159;52.414;9.784;2023-11-18T07:58:00;36.13;;;22.03;;
6251;SDS011;3159;52.414;9.784;2023-11-18T08:00:29;41.43;;;22.90;;
6251;SDS011;3159;52.414;9.784;2023-11-18T08:02:56;35.17;;;21.53;;
6251;SDS011;3159;52.414;9.784;2023-11-18T08:05:22;29.63;;;19.37;;
6251;SDS011;3159;52.414;9.784;2023-11-18T08:07:51;32.47;;;19.77;;
6251;SDS011;3159;52.414;9.784;2023-11-18T08:10:18;37.00;;;21.30;;
6251;SDS011;3159;52.414;9.784;2023-11-18T08:12:47;36.07;;;21.10;;
6251;SDS011;3159;52.414;9.784;2023-11-18T08:15:14;38.20;;;22.60;;
6251;SDS011;3159;52.414;9.784;2023-11-18T08:17:41;39.13;;;23.37;;
6251;SDS011;3159;52.414;9.784;2023-11-18T08:20:08;39.07;;;22.80;;
6251;SDS011;3159;52.414;9.784;2023-11-18T08:22:39;45.90;;;23.97;;
6251;SDS011;3159;52.414;9.784;2023-11-18T08:25:09;39.10;;;22.53;;
6251;SDS011;3159;52.414;9.784;2023-11-18T08:27:37;42.37;;;25.00;;
6251;SDS011;3159;52.414;9.784;2023-11-18T08:30:05;42.33;;;24.23;;
6251;SDS011;3159;52.414;9.784;2023-11-18T08:32:36;43.90;;;24.33;;
6251;SDS011;3159;52.414;9.784;2023-11-18T08:35:05;38.97;;;23.20;;
6251;SDS011;3159;52.414;9.784;2023-11-18T08:37:33;44.70;;;23.93;;
6251;SDS011;3159;52.414;9.784;2023-11-18T08:40:01;41.80;;;24.00;;
6251;SDS011;3159;52.414;9.784;2023-11-18T08:42:30;38.73;;;22.47;;
6251;SDS011;3159;52.414;9.784;2023-11-18T08:44:59;40.53;;;21.70;;
6251;SDS011;3159;52.414;9.784;2023-11-18T08:47:26;39.97;;;22.00;;
6251;SDS011;3159;52.414;9.784;2023-11-18T08:49:54;37.77;;;22.10;;
6251;SDS011;3159;52.414;9.784;2023-11-18T08:52:21;42.77;;;22.97;;
6251;SDS011;3159;52.414;9.784;2023-11-18T08:54:50;39.50;;;22.03;;
6251;SDS011;3159;52.414;9.784;2023-11-18T08:57:44;38.57;;;22.53;;
6251;SDS011;3159;52.414;9.784;2023-11-18T09:00:23;40.10;;;21.90;;
6251;SDS011;3159;52.414;9.784;2023-11-18T09:03:11;43.90;;;22.80;;
6251;SDS011;3159;52.414;9.784;2023-11-18T09:05:43;42.27;;;21.93;;
6251;SDS011;3159;52.414;9.784;2023-11-18T09:08:22;40.07;;;21.90;;
6251;SDS011;3159;52.414;9.784;2023-11-18T09:10:54;35.63;;;20.63;;
6251;SDS011;3159;52.414;9.784;2023-11-18T09:13:24;41.80;;;22.53;;
6251;SDS011;3159;52.414;9.784;2023-11-18T09:15:54;37.83;;;22.30;;
6251;SDS011;3159;52.414;9.784;2023-11-18T09:18:22;34.03;;;21.07;;
6251;SDS011;3159;52.414;9.784;2023-11-18T09:20:50;41.40;;;21.07;;
6251;SDS011;3159;52.414;9.784;2023-11-18T09:23:20;43.30;;;22.27;;
6251;SDS011;3159;52.414;9.784;2023-11-18T09:25:48;38.47;;;22.57;;
6251;SDS011;3159;52.414;9.784;2023-11-18T09:28:16;40.80;;;22.00;;
6251;SDS011;3159;52.414;9.784;2023-11-18T09:30:46;41.93;;;22.13;;
6251;SDS011;3159;52.414;9.784;2023-11-18T09:33:19;38.00;;;20.60;;
6251;SDS011;3159;52.414;9.784;2023-11-18T09:35:59;40.63;;;21.57;;
6251;SDS011;3159;52.414;9.784;2023-11-18T09:38:27;33.83;;;20.53;;
6251;SDS011;3159;52.414;9.784;2023-11-18T09:40:57;41.00;;;21.73;;
6251;SDS011;3159;52.414;9.784;2023-11-18T09:43:28;38.17;;;20.80;;
6251;SDS011;3159;52.414;9.784;2023-11-18T09:46:03;45.13;;;21.60;;
6251;SDS011;3159;52.414;9.784;2023-11-18T09:48:39;37.17;;;19.73;;
6251;SDS011;3159;52.414;9.784;2023-11-18T09:51:13;35.90;;;19.67;;
6251;SDS011;3159;52.414;9.784;2023-11-18T09:53:44;35.00;;;19.90;;
6251;SDS011;3159;52.414;9.784;2023-11-18T09:56:14;33.30;;;19.50;;
6251;SDS011;3159;52.414;9.784;2023-11-18T09:58:54;33.00;;;19.33;;
6251;SDS011;3159;52.414;9.784;2023-11-18T10:01:31;29.87;;;18.27;;
6251;SDS011;3159;52.414;9.784;2023-11-18T10:04:04;38.67;;;20.50;;
6251;SDS011;3159;52.414;9.784;2023-11-18T10:06:33;35.43;;;19.40;;
6251;SDS011;3159;52.414;9.784;2023-11-18T10:09:04;37.40;;;19.13;;
6251;SDS011;3159;52.414;9.784;2023-11-18T10:11:42;32.30;;;18.60;;
6251;SDS011;3159;52.414;9.784;2023-11-18T10:14:11;32.13;;;17.93;;
6251;SDS011;3159;52.414;9.784;2023-11-18T10:16:42;35.83;;;18.47;;
6251;SDS011;3159;52.414;9.784;2023-11-18T10:19:12;28.73;;;17.23;;
6251;SDS011;3159;52.414;9.784;2023-11-18T10:21:39;33.90;;;17.03;;
6251;SDS011;3159;52.414;9.784;2023-11-18T10:24:08;32.20;;;16.73;;
6251;SDS011;3159;52.414;9.784;2023-11-18T10:26:40;31.53;;;16.47;;
6251;SDS011;3159;52.414;9.784;2023-11-18T10:29:10;28.90;;;16.03;;
6251;SDS011;3159;52.414;9.784;2023-11-18T10:31:38;29.33;;;15.97;;
6251;SDS011;3159;52.414;9.784;2023-11-18T10:34:12;26.97;;;13.97;;
6251;SDS011;3159;52.414;9.784;2023-11-18T10:36:41;27.53;;;13.90;;
6251;SDS011;3159;52.414;9.784;2023-11-18T10:39:27;24.70;;;13.07;;
6251;SDS011;3159;52.414;9.784;2023-11-18T10:41:58;21.83;;;11.70;;
6251;SDS011;3159;52.414;9.784;2023-11-18T10:44:26;21.17;;;11.27;;
6251;SDS011;3159;52.414;9.784;2023-11-18T10:46:54;20.97;;;11.43;;
6251;SDS011;3159;52.414;9.784;2023-11-18T10:49:25;21.37;;;10.60;;
6251;SDS011;3159;52.414;9.784;2023-11-18T10:51:55;16.63;;;9.93;;
6251;SDS011;3159;52.414;9.784;2023-11-18T10:54:23;20.57;;;11.30;;
6251;SDS011;3159;52.414;9.784;2023-11-18T10:56:51;20.30;;;11.53;;
6251;SDS011;3159;52.414;9.784;2023-11-18T10:59:21;18.17;;;11.17;;
6251;SDS011;3159;52.414;9.784;2023-11-18T11:01:48;19.10;;;11.07;;
6251;SDS011;3159;52.414;9.784;2023-11-18T11:04:16;21.00;;;10.97;;
6251;SDS011;3159;52.414;9.784;2023-11-18T11:06:47;22.40;;;11.50;;
6251;SDS011;3159;52.414;9.784;2023-11-18T11:09:29;16.33;;;10.20;;
6251;SDS011;3159;52.414;9.784;2023-11-18T11:12:03;21.20;;;11.10;;
6251;SDS011;3159;52.414;9.784;2023-11-18T11:14:41;16.77;;;9.50;;
6251;SDS011;3159;52.414;9.784;2023-11-18T11:17:17;20.90;;;10.63;;
6251;SDS011;3159;52.414;9.784;2023-11-18T11:19:55;14.83;;;9.00;;
6251;SDS011;3159;52.414;9.784;2023-11-18T11:22:41;19.00;;;9.60;;
6251;SDS011;3159;52.414;9.784;2023-11-18T11:25:20;12.17;;;8.40;;
6251;SDS011;3159;52.414;9.784;2023-11-18T11:27:54;13.47;;;8.33;;
6251;SDS011;3159;52.414;9.784;2023-11-18T11:30:28;12.63;;;7.27;;
6251;SDS011;3159;52.414;9.784;2023-11-18T11:33:00;13.80;;;7.40;;
6251;SDS011;3159;52.414;9.784;2023-11-18T11:35:37;12.23;;;7.13;;
6251;SDS011;3159;52.414;9.784;2023-11-18T11:38:11;10.20;;;6.53;;
6251;SDS011;3159;52.414;9.784;2023-11-18T11:40:39;9.27;;;5.90;;
6251;SDS011;3159;52.414;9.784;2023-11-18T11:43:09;11.60;;;6.33;;
6251;SDS011;3159;52.414;9.784;2023-11-18T11:45:36;7.93;;;5.30;;
6251;SDS011;3159;52.414;9.784;2023-11-18T11:48:06;7.33;;;5.17;;
6251;SDS011;3159;52.414;9.784;2023-11-18T11:50:47;9.00;;;5.03;;
6251;SDS011;3159;52.414;9.784;2023-11-18T11:53:24;7.47;;;4.77;;
6251;SDS011;3159;52.414;9.784;2023-11-18T11:55:56;7.10;;;4.67;;
6251;SDS011;3159;52.414;9.784;2023-11-18T11:58:31;6.47;;;4.47;;
6251;SDS011;3159;52.414;9.784;2023-11-18T12:01:02;8.33;;;4.53;;
6251;SDS011;3159;52.414;9.784;2023-11-18T12:04:00;7.20;;;4.40;;
6251;SDS011;3159;52.414;9.784;2023-11-18T12:06:31;9.30;;;5.40;;
6251;SDS011;3159;52.414;9.784;2023-11-18T12:09:04;9.53;;;5.40;;
6251;SDS011;3159;52.414;9.784;2023-11-18T12:11:34;9.67;;;5.37;;
6251;SDS011;3159;52.414;9.784;2023-11-18T12:14:08;9.00;;;5.73;;
6251;SDS011;3159;52.414;9.784;2023-11-18T12:17:03;9.53;;;5.57;;
6251;SDS011;3159;52.414;9.784;2023-11-18T12:19:34;9.60;;;5.50;;
6251;SDS011;3159;52.414;9.784;2023-11-18T12:22:11;8.50;;;5.57;;
6251;SDS011;3159;52.414;9.784;2023-11-18T12:24:45;11.60;;;5.73;;
6251;SDS011;3159;52.414;9.784;2023-11-18T12:33:22;8.87;;;6.27;;
6251;SDS011;3159;52.414;9.784;2023-11-18T12:42:20;7.37;;;5.30;;
6251;SDS011;3159;52.414;9.784;2023-11-18T12:45:23;10.60;;;5.97;;
6251;SDS011;3159;52.414;9.784;2023-11-18T12:48:12;13.70;;;6.10;;
6251;SDS011;3159;52.414;9.784;2023-11-18T12:50:41;12.00;;;6.53;;
6251;SDS011;3159;52.414;9.784;2023-11-18T12:53:11;9.90;;;5.87;;
6251;SDS011;3159;52.414;9.784;2023-11-18T12:55:40;8.83;;;6.73;;
6251;SDS011;3159;52.414;9.784;2023-11-18T12:58:07;10.00;;;6.30;;
6251;SDS011;3159;52.414;9.784;2023-11-18T13:00:36;13.17;;;6.73;;
6251;SDS011;3159;52.414;9.784;2023-11-18T13:03:07;8.73;;;5.93;;
6251;SDS011;3159;52.414;9.784;2023-11-18T13:05:37;8.77;;;6.50;;
6251;SDS011;3159;52.414;9.784;2023-11-18T13:08:04;15.57;;;8.83;;
6251;SDS011;3159;52.414;9.784;2023-11-18T13:10:32;11.13;;;6.73;;
6251;SDS011;3159;52.414;9.784;2023-11-18T13:12:59;10.87;;;6.60;;
6251;SDS011;3159;52.414;9.784;2023-11-18T13:15:26;8.53;;;5.97;;
6251;SDS011;3159;52.414;9.784;2023-11-18T13:17:57;10.33;;;6.40;;
6251;SDS011;3159;52.414;9.784;2023-11-18T13:20:25;7.47;;;5.57;;
6251;SDS011;3159;52.414;9.784;2023-11-18T13:22:53;11.67;;;6.63;;
6251;SDS011;3159;52.414;9.784;2023-11-18T13:25:21;8.33;;;5.93;;
6251;SDS011;3159;52.414;9.784;2023-11-18T13:27:48;6.83;;;5.53;;
6251;SDS011;3159;52.414;9.784;2023-11-18T13:30:16;9.60;;;6.13;;
6251;SDS011;3159;52.414;9.784;2023-11-18T13:32:43;7.20;;;5.80;;
6251;SDS011;3159;52.414;9.784;2023-11-18T13:35:10;10.97;;;6.07;;
6251;SDS011;3159;52.414;9.784;2023-11-18T13:37:39;8.50;;;6.30;;
6251;SDS011;3159;52.414;9.784;2023-11-18T13:40:08;8.67;;;5.67;;
6251;SDS011;3159;52.414;9.784;2023-11-18T13:42:38;9.20;;;6.20;;
6251;SDS011;3159;52.414;9.784;2023-11-18T13:45:05;9.83;;;6.50;;
6251;SDS011;3159;52.414;9.784;2023-11-18T13:47:37;9.30;;;6.20;;
6251;SDS011;3159;52.414;9.784;2023-11-18T13:50:06;9.47;;;6.20;;
6251;SDS011;3159;52.414;9.784;2023-11-18T13:52:33;10.77;;;7.20;;
6251;SDS011;3159;52.414;9.784;2023-11-18T13:55:00;10.27;;;7.63;;
6251;SDS011;3159;52.414;9.784;2023-11-18T13:57:32;10.70;;;6.47;;
6251;SDS011;3159;52.414;9.784;2023-11-18T13:59:59;7.43;;;5.53;;
6251;SDS011;3159;52.414;9.784;2023-11-18T14:02:27;9.00;;;5.33;;
6251;SDS011;3159;52.414;9.784;2023-11-18T14:04:54;10.03;;;6.90;;
6251;SDS011;3159;52.414;9.784;2023-11-18T14:07:22;10.23;;;6.93;;
6251;SDS011;3159;52.414;9.784;2023-11-18T14:09:49;8.20;;;5.77;;
6251;SDS011;3159;52.414;9.784;2023-11-18T14:12:21;9.03;;;6.50;;
6251;SDS011;3159;52.414;9.784;2023-11-18T14:14:52;8.67;;;6.07;;
6251;SDS011;3159;52.414;9.784;2023-11-18T14:17:19;8.03;;;6.00;;
6251;SDS011;3159;52.414;9.784;2023-11-18T14:19:46;7.50;;;5.33;;
6251;SDS011;3159;52.414;9.784;2023-11-18T14:22:14;7.50;;;6.10;;
6251;SDS011;3159;52.414;9.784;2023-11-18T14:24:40;8.00;;;5.67;;
6251;SDS011;3159;52.414;9.784;2023-11-18T14:27:07;8.27;;;5.67;;
6251;SDS011;3159;52.414;9.784;2023-11-18T14:29:35;9.17;;;6.00;;
6251;SDS011;3159;52.414;9.784;2023-11-18T14:32:04;8.73;;;5.93;;
6251;SDS011;3159;52.414;9.784;2023-11-18T14:34:32;8.47;;;5.30;;
6251;SDS011;3159;52.414;9.784;2023-11-18T14:36:59;9.20;;;5.43;;
6251;SDS011;3159;52.414;9.784;2023-11-18T14:39:27;6.53;;;5.40;;
6251;SDS011;3159;52.414;9.784;2023-11-18T14:41:54;7.00;;;5.73;;
6251;SDS011;3159;52.414;9.784;2023-11-18T14:44:21;7.43;;;5.47;;
6251;SDS011;3159;52.414;9.784;2023-11-18T14:46:48;7.70;;;5.43;;
6251;SDS011;3159;52.414;9.784;2023-11-18T14:49:16;8.73;;;5.00;;
6251;SDS011;3159;52.414;9.784;2023-11-18T14:51:43;6.70;;;4.87;;
6251;SDS011;3159;52.414;9.784;2023-11-18T14:54:10;9.83;;;5.73;;
6251;SDS011;3159;52.414;9.784;2023-11-18T14:56:37;7.33;;;5.07;;
6251;SDS011;3159;52.414;9.784;2023-11-18T14:59:04;6.13;;;5.27;;
6251;SDS011;3159;52.414;9.784;2023-11-18T15:01:33;6.80;;;4.77;;
6251;SDS011;3159;52.414;9.784;2023-11-18T15:04:00;5.50;;;4.37;;
6251;SDS011;3159;52.414;9.784;2023-11-18T15:06:31;7.13;;;4.43;;
6251;SDS011;3159;52.414;9.784;2023-11-18T15:08:58;7.67;;;5.07;;
6251;SDS011;3159;52.414;9.784;2023-11-18T15:11:28;6.97;;;4.70;;
6251;SDS011;3159;52.414;9.784;2023-11-18T15:13:58;6.10;;;5.00;;
6251;SDS011;3159;52.414;9.784;2023-11-18T15:16:25;9.37;;;5.63;;
6251;SDS011;3159;52.414;9.784;2023-11-18T15:18:52;8.30;;;6.07;;
6251;SDS011;3159;52.414;9.784;2023-11-18T15:21:20;10.53;;;5.83;;
6251;SDS011;3159;52.414;9.784;2023-11-18T15:23:48;9.57;;;5.70;;